sensor_id;sensor_type;location;lat;lon;timestamp;P1;durP1;ratioP1;P2;durP2;ratioP2
12591;SDS011;6361;52.120;5.108;2023-10-13T00:00:26;27.13;;;16.20;;
12591;SDS011;6361;52.120;5.108;2023-10-13T00:02:58;30.42;;;16.17;;
12591;SDS011;6361;52.120;5.108;2023-10-13T00:05:26;27.55;;;16.35;;
12591;SDS011;6361;52.120;5.108;2023-10-13T00:07:52;29.65;;;16.98;;
12591;SDS011;6361;52.120;5.108;2023-10-13T00:10:18;25.40;;;16.30;;
12591;SDS011;6361;52.120;5.108;2023-10-13T00:12:43;25.63;;;15.93;;
12591;SDS011;6361;52.120;5.108;2023-10-13T00:15:14;23.20;;;14.93;;
12591;SDS011;6361;52.120;5.108;2023-10-13T00:17:52;31.20;;;16.05;;
12591;SDS011;6361;52.120;5.108;2023-10-13T00:20:20;24.15;;;15.27;;
12591;SDS011;6361;52.120;5.108;2023-10-13T00:23:02;26.13;;;14.82;;
12591;SDS011;6361;52.120;5.108;2023-10-13T00:25:28;25.70;;;14.50;;
12591;SDS011;6361;52.120;5.108;2023-10-13T00:27:56;26.65;;;15.23;;
12591;SDS011;6361;52.120;5.108;2023-10-13T00:30:22;22.45;;;14.32;;
12591;SDS011;6361;52.120;5.108;2023-10-13T00:32:58;22.10;;;14.32;;
12591;SDS011;6361;52.120;5.108;2023-10-13T00:35:25;26.92;;;15.27;;
12591;SDS011;6361;52.120;5.108;2023-10-13T00:37:57;27.58;;;16.33;;
12591;SDS011;6361;52.120;5.108;2023-10-13T00:40:28;27.80;;;16.33;;
12591;SDS011;6361;52.120;5.108;2023-10-13T00:43:00;33.47;;;17.42;;
12591;SDS011;6361;52.120;5.108;2023-10-13T00:45:44;33.03;;;18.50;;
12591;SDS011;6361;52.120;5.108;2023-10-13T00:48:22;32.00;;;18.58;;
12591;SDS011;6361;52.120;5.108;2023-10-13T00:50:58;32.30;;;17.55;;
12591;SDS011;6361;52.120;5.108;2023-10-13T00:53:28;31.65;;;16.90;;
12591;SDS011;6361;52.120;5.108;2023-10-13T00:55:59;29.60;;;17.48;;
12591;SDS011;6361;52.120;5.108;2023-10-13T00:58:31;27.58;;;17.98;;
12591;SDS011;6361;52.120;5.108;2023-10-13T01:00:59;28.13;;;16.63;;
12591;SDS011;6361;52.120;5.108;2023-10-13T01:03:43;27.85;;;16.60;;
12591;SDS011;6361;52.120;5.108;2023-10-13T01:06:16;28.95;;;16.02;;
12591;SDS011;6361;52.120;5.108;2023-10-13T01:08:44;24.52;;;15.88;;
12591;SDS011;6361;52.120;5.108;2023-10-13T01:11:13;27.13;;;15.88;;
12591;SDS011;6361;52.120;5.108;2023-10-13T01:13:38;24.90;;;16.42;;
12591;SDS011;6361;52.120;5.108;2023-10-13T01:16:06;23.63;;;15.85;;
12591;SDS011;6361;52.120;5.108;2023-10-13T01:18:32;28.98;;;16.70;;
12591;SDS011;6361;52.120;5.108;2023-10-13T01:21:05;25.23;;;16.80;;
12591;SDS011;6361;52.120;5.108;2023-10-13T01:23:31;24.88;;;16.77;;
12591;SDS011;6361;52.120;5.108;2023-10-13T01:26:03;27.58;;;16.08;;
12591;SDS011;6361;52.120;5.108;2023-10-13T01:28:31;26.02;;;16.92;;
12591;SDS011;6361;52.120;5.108;2023-10-13T01:31:09;24.33;;;15.73;;
12591;SDS011;6361;52.120;5.108;2023-10-13T01:33:37;22.92;;;16.15;;
12591;SDS011;6361;52.120;5.108;2023-10-13T01:36:02;21.98;;;16.15;;
12591;SDS011;6361;52.120;5.108;2023-10-13T01:38:32;20.08;;;15.13;;
12591;SDS011;6361;52.120;5.108;2023-10-13T01:40:58;23.27;;;15.52;;
12591;SDS011;6361;52.120;5.108;2023-10-13T01:43:24;23.63;;;14.82;;
12591;SDS011;6361;52.120;5.108;2023-10-13T01:45:49;24.60;;;14.57;;
12591;SDS011;6361;52.120;5.108;2023-10-13T01:48:18;23.40;;;14.90;;
12591;SDS011;6361;52.120;5.108;2023-10-13T01:50:46;19.50;;;14.88;;
12591;SDS011;6361;52.120;5.108;2023-10-13T01:53:13;23.08;;;13.35;;
12591;SDS011;6361;52.120;5.108;2023-10-13T01:55:42;21.20;;;13.75;;
12591;SDS011;6361;52.120;5.108;2023-10-13T01:58:11;23.33;;;14.18;;
12591;SDS011;6361;52.120;5.108;2023-10-13T02:00:44;23.63;;;12.95;;
12591;SDS011;6361;52.120;5.108;2023-10-13T02:03:12;22.15;;;12.45;;
12591;SDS011;6361;52.120;5.108;2023-10-13T02:05:50;18.98;;;12.32;;
12591;SDS011;6361;52.120;5.108;2023-10-13T02:08:22;17.67;;;11.50;;
12591;SDS011;6361;52.120;5.108;2023-10-13T02:10:52;20.67;;;12.02;;
12591;SDS011;6361;52.120;5.108;2023-10-13T02:13:22;22.08;;;11.82;;
12591;SDS011;6361;52.120;5.108;2023-10-13T02:15:49;19.77;;;11.23;;
12591;SDS011;6361;52.120;5.108;2023-10-13T02:18:18;18.52;;;11.48;;
12591;SDS011;6361;52.120;5.108;2023-10-13T02:21:07;20.08;;;11.85;;
12591;SDS011;6361;52.120;5.108;2023-10-13T02:23:39;18.88;;;11.32;;
12591;SDS011;6361;52.120;5.108;2023-10-13T02:26:24;19.65;;;10.88;;
12591;SDS011;6361;52.120;5.108;2023-10-13T02:28:59;17.23;;;10.68;;
12591;SDS011;6361;52.120;5.108;2023-10-13T02:31:32;22.48;;;11.57;;
12591;SDS011;6361;52.120;5.108;2023-10-13T02:34:00;18.85;;;11.05;;
12591;SDS011;6361;52.120;5.108;2023-10-13T02:36:26;23.55;;;10.48;;
12591;SDS011;6361;52.120;5.108;2023-10-13T02:39:04;20.35;;;11.15;;
12591;SDS011;6361;52.120;5.108;2023-10-13T02:41:33;16.90;;;10.57;;
12591;SDS011;6361;52.120;5.108;2023-10-13T02:44:02;19.60;;;11.00;;
12591;SDS011;6361;52.120;5.108;2023-10-13T02:46:31;17.73;;;11.13;;
12591;SDS011;6361;52.120;5.108;2023-10-13T02:49:00;20.08;;;11.52;;
12591;SDS011;6361;52.120;5.108;2023-10-13T02:51:34;22.08;;;11.80;;
12591;SDS011;6361;52.120;5.108;2023-10-13T02:54:05;18.35;;;11.55;;
12591;SDS011;6361;52.120;5.108;2023-10-13T02:56:59;20.05;;;11.30;;
12591;SDS011;6361;52.120;5.108;2023-10-13T02:59:29;24.02;;;13.48;;
12591;SDS011;6361;52.120;5.108;2023-10-13T03:02:20;23.60;;;12.40;;
12591;SDS011;6361;52.120;5.108;2023-10-13T03:04:50;22.38;;;12.10;;
12591;SDS011;6361;52.120;5.108;2023-10-13T03:07:16;20.98;;;12.32;;
12591;SDS011;6361;52.120;5.108;2023-10-13T03:09:53;22.65;;;12.20;;
12591;SDS011;6361;52.120;5.108;2023-10-13T03:12:26;16.67;;;11.30;;
12591;SDS011;6361;52.120;5.108;2023-10-13T03:14:59;22.70;;;12.07;;
12591;SDS011;6361;52.120;5.108;2023-10-13T03:17:43;17.95;;;11.80;;
12591;SDS011;6361;52.120;5.108;2023-10-13T03:20:16;20.08;;;12.75;;
12591;SDS011;6361;52.120;5.108;2023-10-13T03:22:47;20.30;;;13.00;;
12591;SDS011;6361;52.120;5.108;2023-10-13T03:25:17;23.83;;;12.52;;
12591;SDS011;6361;52.120;5.108;2023-10-13T03:27:49;23.88;;;12.98;;
12591;SDS011;6361;52.120;5.108;2023-10-13T03:30:18;24.30;;;12.93;;
12591;SDS011;6361;52.120;5.108;2023-10-13T03:32:45;25.73;;;13.20;;
12591;SDS011;6361;52.120;5.108;2023-10-13T03:35:18;19.75;;;11.80;;
12591;SDS011;6361;52.120;5.108;2023-10-13T03:37:53;21.10;;;12.25;;
12591;SDS011;6361;52.120;5.108;2023-10-13T03:40:19;20.25;;;12.07;;
12591;SDS011;6361;52.120;5.108;2023-10-13T03:42:44;24.85;;;11.88;;
12591;SDS011;6361;52.120;5.108;2023-10-13T03:45:22;23.17;;;12.20;;
12591;SDS011;6361;52.120;5.108;2023-10-13T03:47:49;20.90;;;12.35;;
12591;SDS011;6361;52.120;5.108;2023-10-13T03:50:16;18.42;;;11.20;;
12591;SDS011;6361;52.120;5.108;2023-10-13T03:52:54;19.42;;;12.23;;
12591;SDS011;6361;52.120;5.108;2023-10-13T03:55:23;18.13;;;11.73;;
12591;SDS011;6361;52.120;5.108;2023-10-13T03:57:51;16.73;;;12.13;;
12591;SDS011;6361;52.120;5.108;2023-10-13T04:00:17;16.48;;;11.15;;
12591;SDS011;6361;52.120;5.108;2023-10-13T04:02:50;16.60;;;10.30;;
12591;SDS011;6361;52.120;5.108;2023-10-13T04:05:34;13.60;;;10.00;;
12591;SDS011;6361;52.120;5.108;2023-10-13T04:08:06;13.65;;;9.50;;
12591;SDS011;6361;52.120;5.108;2023-10-13T04:10:55;13.68;;;9.65;;
12591;SDS011;6361;52.120;5.108;2023-10-13T04:13:21;18.00;;;10.15;;
12591;SDS011;6361;52.120;5.108;2023-10-13T04:16:09;15.90;;;10.23;;
12591;SDS011;6361;52.120;5.108;2023-10-13T04:18:59;13.68;;;10.75;;
12591;SDS011;6361;52.120;5.108;2023-10-13T04:21:25;14.65;;;10.77;;
12591;SDS011;6361;52.120;5.108;2023-10-13T04:24:21;16.67;;;10.20;;
12591;SDS011;6361;52.120;5.108;2023-10-13T04:27:09;17.15;;;11.15;;
12591;SDS011;6361;52.120;5.108;2023-10-13T04:29:40;17.80;;;10.88;;
12591;SDS011;6361;52.120;5.108;2023-10-13T04:32:31;15.48;;;11.43;;
12591;SDS011;6361;52.120;5.108;2023-10-13T04:35:31;17.50;;;10.90;;
12591;SDS011;6361;52.120;5.108;2023-10-13T04:38:01;14.88;;;10.40;;
12591;SDS011;6361;52.120;5.108;2023-10-13T04:40:40;12.55;;;9.98;;
12591;SDS011;6361;52.120;5.108;2023-10-13T04:43:23;13.35;;;9.75;;
12591;SDS011;6361;52.120;5.108;2023-10-13T04:45:59;14.20;;;10.20;;
12591;SDS011;6361;52.120;5.108;2023-10-13T04:48:39;15.20;;;9.75;;
12591;SDS011;6361;52.120;5.108;2023-10-13T04:51:04;11.50;;;9.52;;
12591;SDS011;6361;52.120;5.108;2023-10-13T04:54:08;12.20;;;9.35;;
12591;SDS011;6361;52.120;5.108;2023-10-13T04:56:50;12.00;;;9.77;;
12591;SDS011;6361;52.120;5.108;2023-10-13T04:59:38;12.63;;;9.20;;
12591;SDS011;6361;52.120;5.108;2023-10-13T05:02:23;11.98;;;9.52;;
12591;SDS011;6361;52.120;5.108;2023-10-13T05:05:04;12.43;;;9.20;;
12591;SDS011;6361;52.120;5.108;2023-10-13T05:07:31;11.35;;;9.80;;
12591;SDS011;6361;52.120;5.108;2023-10-13T05:10:16;16.13;;;9.43;;
12591;SDS011;6361;52.120;5.108;2023-10-13T05:15:49;13.90;;;9.50;;
12591;SDS011;6361;52.120;5.108;2023-10-13T05:18:33;12.55;;;9.88;;
12591;SDS011;6361;52.120;5.108;2023-10-13T05:21:18;16.60;;;10.20;;
12591;SDS011;6361;52.120;5.108;2023-10-13T05:24:02;15.05;;;10.15;;
12591;SDS011;6361;52.120;5.108;2023-10-13T05:26:47;15.05;;;10.13;;
12591;SDS011;6361;52.120;5.108;2023-10-13T05:29:31;16.05;;;9.63;;
12591;SDS011;6361;52.120;5.108;2023-10-13T05:32:15;17.30;;;8.88;;
12591;SDS011;6361;52.120;5.108;2023-10-13T05:34:59;16.80;;;7.35;;
12591;SDS011;6361;52.120;5.108;2023-10-13T05:37:43;14.52;;;7.22;;
12591;SDS011;6361;52.120;5.108;2023-10-13T05:40:27;12.98;;;6.35;;
12591;SDS011;6361;52.120;5.108;2023-10-13T05:43:11;12.80;;;6.25;;
12591;SDS011;6361;52.120;5.108;2023-10-13T05:46:01;17.43;;;6.83;;
12591;SDS011;6361;52.120;5.108;2023-10-13T05:48:28;18.00;;;6.65;;
12591;SDS011;6361;52.120;5.108;2023-10-13T05:51:17;15.65;;;6.50;;
12591;SDS011;6361;52.120;5.108;2023-10-13T05:54:00;13.57;;;6.03;;
12591;SDS011;6361;52.120;5.108;2023-10-13T05:56:41;17.20;;;6.53;;
12591;SDS011;6361;52.120;5.108;2023-10-13T05:59:26;16.17;;;5.82;;
12591;SDS011;6361;52.120;5.108;2023-10-13T06:02:10;22.30;;;6.70;;
12591;SDS011;6361;52.120;5.108;2023-10-13T06:04:55;16.75;;;6.07;;
12591;SDS011;6361;52.120;5.108;2023-10-13T06:07:40;15.32;;;6.10;;
12591;SDS011;6361;52.120;5.108;2023-10-13T06:10:24;11.50;;;6.73;;
12591;SDS011;6361;52.120;5.108;2023-10-13T06:13:08;15.07;;;6.35;;
12591;SDS011;6361;52.120;5.108;2023-10-13T06:15:51;17.30;;;6.75;;
12591;SDS011;6361;52.120;5.108;2023-10-13T06:18:36;16.10;;;6.53;;
12591;SDS011;6361;52.120;5.108;2023-10-13T06:21:20;15.60;;;6.35;;
12591;SDS011;6361;52.120;5.108;2023-10-13T06:24:04;17.77;;;5.95;;
12591;SDS011;6361;52.120;5.108;2023-10-13T06:29:33;13.60;;;5.90;;
12591;SDS011;6361;52.120;5.108;2023-10-13T06:31:58;16.70;;;6.65;;
12591;SDS011;6361;52.120;5.108;2023-10-13T06:34:26;19.77;;;6.38;;
12591;SDS011;6361;52.120;5.108;2023-10-13T06:37:10;16.40;;;6.70;;
12591;SDS011;6361;52.120;5.108;2023-10-13T06:40:01;15.30;;;6.85;;
12591;SDS011;6361;52.120;5.108;2023-10-13T06:42:48;14.65;;;6.38;;
12591;SDS011;6361;52.120;5.108;2023-10-13T06:45:13;24.02;;;6.95;;
12591;SDS011;6361;52.120;5.108;2023-10-13T06:47:41;14.07;;;7.07;;
12591;SDS011;6361;52.120;5.108;2023-10-13T06:50:10;13.88;;;7.95;;
12591;SDS011;6361;52.120;5.108;2023-10-13T06:52:43;20.23;;;8.68;;
12591;SDS011;6361;52.120;5.108;2023-10-13T06:55:09;15.05;;;8.90;;
12591;SDS011;6361;52.120;5.108;2023-10-13T06:57:48;18.42;;;9.73;;
12591;SDS011;6361;52.120;5.108;2023-10-13T07:00:16;18.13;;;10.77;;
12591;SDS011;6361;52.120;5.108;2023-10-13T07:02:51;17.42;;;11.15;;
12591;SDS011;6361;52.120;5.108;2023-10-13T07:05:17;19.70;;;12.25;;
12591;SDS011;6361;52.120;5.108;2023-10-13T07:07:44;21.02;;;12.57;;
12591;SDS011;6361;52.120;5.108;2023-10-13T07:10:10;18.60;;;12.48;;
12591;SDS011;6361;52.120;5.108;2023-10-13T07:12:37;18.25;;;13.30;;
12591;SDS011;6361;52.120;5.108;2023-10-13T07:15:03;18.98;;;14.45;;
12591;SDS011;6361;52.120;5.108;2023-10-13T07:17:44;22.20;;;14.85;;
12591;SDS011;6361;52.120;5.108;2023-10-13T07:20:19;19.92;;;14.45;;
12591;SDS011;6361;52.120;5.108;2023-10-13T07:22:54;18.20;;;12.82;;
12591;SDS011;6361;52.120;5.108;2023-10-13T07:25:32;20.08;;;13.20;;
12591;SDS011;6361;52.120;5.108;2023-10-13T07:28:01;20.45;;;12.38;;
12591;SDS011;6361;52.120;5.108;2023-10-13T07:30:33;22.98;;;11.80;;
12591;SDS011;6361;52.120;5.108;2023-10-13T07:33:05;18.33;;;11.43;;
12591;SDS011;6361;52.120;5.108;2023-10-13T07:35:31;24.42;;;11.02;;
12591;SDS011;6361;52.120;5.108;2023-10-13T07:38:00;19.95;;;11.00;;
12591;SDS011;6361;52.120;5.108;2023-10-13T07:40:26;22.08;;;11.00;;
12591;SDS011;6361;52.120;5.108;2023-10-13T07:42:52;20.95;;;10.32;;
12591;SDS011;6361;52.120;5.108;2023-10-13T07:45:25;17.30;;;9.45;;
12591;SDS011;6361;52.120;5.108;2023-10-13T07:48:00;18.55;;;9.65;;
12591;SDS011;6361;52.120;5.108;2023-10-13T07:50:32;18.27;;;9.30;;
12591;SDS011;6361;52.120;5.108;2023-10-13T07:52:59;16.52;;;8.55;;
12591;SDS011;6361;52.120;5.108;2023-10-13T07:55:29;18.55;;;8.57;;
12591;SDS011;6361;52.120;5.108;2023-10-13T07:57:59;20.80;;;8.50;;
12591;SDS011;6361;52.120;5.108;2023-10-13T08:00:25;19.40;;;8.23;;
12591;SDS011;6361;52.120;5.108;2023-10-13T08:02:58;19.77;;;7.95;;
12591;SDS011;6361;52.120;5.108;2023-10-13T08:05:34;21.27;;;8.35;;
12591;SDS011;6361;52.120;5.108;2023-10-13T08:08:18;16.47;;;7.20;;
12591;SDS011;6361;52.120;5.108;2023-10-13T08:10:44;20.00;;;7.80;;
12591;SDS011;6361;52.120;5.108;2023-10-13T08:13:10;15.00;;;7.00;;
12591;SDS011;6361;52.120;5.108;2023-10-13T08:15:41;16.10;;;6.60;;
12591;SDS011;6361;52.120;5.108;2023-10-13T08:20:55;20.63;;;7.35;;
12591;SDS011;6361;52.120;5.108;2023-10-13T08:23:28;19.08;;;7.53;;
12591;SDS011;6361;52.120;5.108;2023-10-13T08:26:10;10.88;;;6.38;;
12591;SDS011;6361;52.120;5.108;2023-10-13T08:28:54;21.90;;;6.80;;
12591;SDS011;6361;52.120;5.108;2023-10-13T08:31:21;20.67;;;6.97;;
12591;SDS011;6361;52.120;5.108;2023-10-13T08:33:51;22.13;;;7.75;;
12591;SDS011;6361;52.120;5.108;2023-10-13T08:36:31;18.83;;;6.40;;
12591;SDS011;6361;52.120;5.108;2023-10-13T08:38:57;17.13;;;6.20;;
12591;SDS011;6361;52.120;5.108;2023-10-13T08:41:23;17.95;;;6.30;;
12591;SDS011;6361;52.120;5.108;2023-10-13T08:43:49;19.13;;;5.90;;
12591;SDS011;6361;52.120;5.108;2023-10-13T08:46:18;22.02;;;6.32;;
12591;SDS011;6361;52.120;5.108;2023-10-13T08:48:58;19.08;;;6.50;;
12591;SDS011;6361;52.120;5.108;2023-10-13T08:51:35;17.50;;;6.53;;
12591;SDS011;6361;52.120;5.108;2023-10-13T08:54:12;20.10;;;6.68;;
12591;SDS011;6361;52.120;5.108;2023-10-13T08:56:59;13.38;;;5.80;;
12591;SDS011;6361;52.120;5.108;2023-10-13T08:59:44;20.48;;;6.18;;
12591;SDS011;6361;52.120;5.108;2023-10-13T09:02:18;18.92;;;6.10;;
12591;SDS011;6361;52.120;5.108;2023-10-13T09:04:46;20.30;;;6.85;;
12591;SDS011;6361;52.120;5.108;2023-10-13T09:07:24;14.15;;;6.00;;
12591;SDS011;6361;52.120;5.108;2023-10-13T09:09:50;18.10;;;6.45;;
12591;SDS011;6361;52.120;5.108;2023-10-13T09:17:31;23.15;;;6.75;;
12591;SDS011;6361;52.120;5.108;2023-10-13T09:20:06;23.20;;;6.57;;
12591;SDS011;6361;52.120;5.108;2023-10-13T09:22:48;15.30;;;6.68;;
12591;SDS011;6361;52.120;5.108;2023-10-13T09:25:26;18.27;;;6.53;;
12591;SDS011;6361;52.120;5.108;2023-10-13T09:27:58;18.25;;;6.55;;
12591;SDS011;6361;52.120;5.108;2023-10-13T09:30:25;19.50;;;6.55;;
12591;SDS011;6361;52.120;5.108;2023-10-13T09:33:03;21.25;;;7.00;;
12591;SDS011;6361;52.120;5.108;2023-10-13T09:35:30;17.85;;;5.95;;
12591;SDS011;6361;52.120;5.108;2023-10-13T09:37:59;14.02;;;6.18;;
12591;SDS011;6361;52.120;5.108;2023-10-13T09:40:27;18.73;;;6.30;;
12591;SDS011;6361;52.120;5.108;2023-10-13T09:42:52;18.77;;;7.72;;
12591;SDS011;6361;52.120;5.108;2023-10-13T09:45:28;21.52;;;6.55;;
12591;SDS011;6361;52.120;5.108;2023-10-13T09:47:59;18.05;;;6.70;;
12591;SDS011;6361;52.120;5.108;2023-10-13T09:50:31;18.75;;;6.10;;
12591;SDS011;6361;52.120;5.108;2023-10-13T09:53:02;18.00;;;6.57;;
12591;SDS011;6361;52.120;5.108;2023-10-13T09:55:35;21.33;;;6.20;;
12591;SDS011;6361;52.120;5.108;2023-10-13T09:58:07;16.38;;;6.43;;
12591;SDS011;6361;52.120;5.108;2023-10-13T10:00:43;16.00;;;6.78;;
12591;SDS011;6361;52.120;5.108;2023-10-13T10:03:11;22.52;;;7.00;;
12591;SDS011;6361;52.120;5.108;2023-10-13T10:05:43;20.92;;;6.25;;
12591;SDS011;6361;52.120;5.108;2023-10-13T10:08:28;17.40;;;6.60;;
12591;SDS011;6361;52.120;5.108;2023-10-13T10:11:19;22.65;;;6.20;;
12591;SDS011;6361;52.120;5.108;2023-10-13T10:16:43;16.58;;;6.45;;
12591;SDS011;6361;52.120;5.108;2023-10-13T10:19:53;19.50;;;6.53;;
12591;SDS011;6361;52.120;5.108;2023-10-13T10:22:32;23.70;;;6.70;;
12591;SDS011;6361;52.120;5.108;2023-10-13T10:25:02;19.38;;;6.20;;
12591;SDS011;6361;52.120;5.108;2023-10-13T10:27:32;18.75;;;6.55;;
12591;SDS011;6361;52.120;5.108;2023-10-13T10:29:58;18.17;;;5.75;;
12591;SDS011;6361;52.120;5.108;2023-10-13T10:32:33;17.20;;;6.10;;
12591;SDS011;6361;52.120;5.108;2023-10-13T10:35:22;16.30;;;6.15;;
12591;SDS011;6361;52.120;5.108;2023-10-13T10:37:48;21.00;;;7.25;;
12591;SDS011;6361;52.120;5.108;2023-10-13T10:40:14;21.05;;;6.32;;
12591;SDS011;6361;52.120;5.108;2023-10-13T10:43:01;20.05;;;6.47;;
12591;SDS011;6361;52.120;5.108;2023-10-13T10:45:29;20.33;;;7.07;;
12591;SDS011;6361;52.120;5.108;2023-10-13T10:47:58;21.55;;;6.60;;
12591;SDS011;6361;52.120;5.108;2023-10-13T10:50:25;16.77;;;6.03;;
12591;SDS011;6361;52.120;5.108;2023-10-13T10:52:59;18.13;;;6.13;;
12591;SDS011;6361;52.120;5.108;2023-10-13T10:55:25;20.95;;;6.90;;
12591;SDS011;6361;52.120;5.108;2023-10-13T11:01:06;21.30;;;6.70;;
12591;SDS011;6361;52.120;5.108;2023-10-13T11:06:36;23.08;;;6.93;;
12591;SDS011;6361;52.120;5.108;2023-10-13T11:09:10;22.75;;;6.70;;
12591;SDS011;6361;52.120;5.108;2023-10-13T11:11:51;19.58;;;6.57;;
12591;SDS011;6361;52.120;5.108;2023-10-13T11:14:25;16.90;;;6.18;;
12591;SDS011;6361;52.120;5.108;2023-10-13T11:16:51;22.58;;;6.50;;
12591;SDS011;6361;52.120;5.108;2023-10-13T11:19:37;25.85;;;7.00;;
12591;SDS011;6361;52.120;5.108;2023-10-13T11:22:17;17.08;;;6.20;;
12591;SDS011;6361;52.120;5.108;2023-10-13T11:24:58;18.45;;;6.55;;
12591;SDS011;6361;52.120;5.108;2023-10-13T11:27:28;20.27;;;6.32;;
12591;SDS011;6361;52.120;5.108;2023-10-13T11:30:13;18.08;;;6.55;;
12591;SDS011;6361;52.120;5.108;2023-10-13T11:32:45;23.45;;;6.45;;
12591;SDS011;6361;52.120;5.108;2023-10-13T11:35:25;21.55;;;6.75;;
12591;SDS011;6361;52.120;5.108;2023-10-13T11:37:55;19.13;;;6.47;;
12591;SDS011;6361;52.120;5.108;2023-10-13T11:40:38;19.65;;;6.05;;
12591;SDS011;6361;52.120;5.108;2023-10-13T11:43:09;18.77;;;7.22;;
12591;SDS011;6361;52.120;5.108;2023-10-13T11:45:42;22.23;;;6.93;;
12591;SDS011;6361;52.120;5.108;2023-10-13T11:48:39;19.67;;;6.55;;
12591;SDS011;6361;52.120;5.108;2023-10-13T11:51:07;20.95;;;6.57;;
12591;SDS011;6361;52.120;5.108;2023-10-13T11:53:33;20.75;;;6.68;;
12591;SDS011;6361;52.120;5.108;2023-10-13T11:56:02;22.00;;;6.80;;
12591;SDS011;6361;52.120;5.108;2023-10-13T11:58:34;17.92;;;6.55;;
12591;SDS011;6361;52.120;5.108;2023-10-13T12:01:03;20.05;;;6.70;;
12591;SDS011;6361;52.120;5.108;2023-10-13T12:03:34;25.08;;;7.05;;
12591;SDS011;6361;52.120;5.108;2023-10-13T12:06:18;17.70;;;6.88;;
12591;SDS011;6361;52.120;5.108;2023-10-13T12:08:47;24.48;;;6.80;;
12591;SDS011;6361;52.120;5.108;2023-10-13T12:11:17;25.55;;;7.10;;
12591;SDS011;6361;52.120;5.108;2023-10-13T12:13:57;29.45;;;7.15;;
12591;SDS011;6361;52.120;5.108;2023-10-13T12:16:23;19.75;;;6.65;;
12591;SDS011;6361;52.120;5.108;2023-10-13T12:18:59;21.85;;;7.07;;
12591;SDS011;6361;52.120;5.108;2023-10-13T12:21:26;23.35;;;6.45;;
12591;SDS011;6361;52.120;5.108;2023-10-13T12:23:52;20.17;;;7.20;;
12591;SDS011;6361;52.120;5.108;2023-10-13T12:26:18;27.35;;;6.88;;
12591;SDS011;6361;52.120;5.108;2023-10-13T12:28:44;20.58;;;7.03;;
12591;SDS011;6361;52.120;5.108;2023-10-13T12:31:16;16.65;;;7.25;;
12591;SDS011;6361;52.120;5.108;2023-10-13T12:33:42;28.55;;;7.03;;
12591;SDS011;6361;52.120;5.108;2023-10-13T12:36:12;20.20;;;6.50;;
12591;SDS011;6361;52.120;5.108;2023-10-13T12:38:47;23.92;;;7.35;;
12591;SDS011;6361;52.120;5.108;2023-10-13T12:41:15;25.23;;;7.43;;
12591;SDS011;6361;52.120;5.108;2023-10-13T12:44:04;18.65;;;6.65;;
12591;SDS011;6361;52.120;5.108;2023-10-13T12:49:35;24.23;;;7.78;;
12591;SDS011;6361;52.120;5.108;2023-10-13T12:52:03;26.45;;;7.03;;
12591;SDS011;6361;52.120;5.108;2023-10-13T12:54:29;25.73;;;7.28;;
12591;SDS011;6361;52.120;5.108;2023-10-13T12:57:00;25.63;;;6.93;;
12591;SDS011;6361;52.120;5.108;2023-10-13T12:59:26;23.10;;;6.55;;
12591;SDS011;6361;52.120;5.108;2023-10-13T13:01:52;24.40;;;7.20;;
12591;SDS011;6361;52.120;5.108;2023-10-13T13:04:18;18.23;;;6.57;;
12591;SDS011;6361;52.120;5.108;2023-10-13T13:06:45;25.52;;;7.55;;
12591;SDS011;6361;52.120;5.108;2023-10-13T13:09:18;24.63;;;7.80;;
12591;SDS011;6361;52.120;5.108;2023-10-13T13:11:53;21.58;;;7.80;;
12591;SDS011;6361;52.120;5.108;2023-10-13T13:14:22;18.25;;;6.55;;
12591;SDS011;6361;52.120;5.108;2023-10-13T13:16:54;25.38;;;7.30;;
12591;SDS011;6361;52.120;5.108;2023-10-13T13:19:31;22.90;;;7.68;;
12591;SDS011;6361;52.120;5.108;2023-10-13T13:22:01;31.95;;;8.10;;
12591;SDS011;6361;52.120;5.108;2023-10-13T13:24:29;20.17;;;7.07;;
12591;SDS011;6361;52.120;5.108;2023-10-13T13:26:55;29.40;;;8.30;;
12591;SDS011;6361;52.120;5.108;2023-10-13T13:29:21;20.85;;;8.00;;
12591;SDS011;6361;52.120;5.108;2023-10-13T13:31:46;23.75;;;8.13;;
12591;SDS011;6361;52.120;5.108;2023-10-13T13:34:12;22.90;;;8.20;;
12591;SDS011;6361;52.120;5.108;2023-10-13T13:36:40;23.20;;;8.20;;
12591;SDS011;6361;52.120;5.108;2023-10-13T13:39:12;21.75;;;8.35;;
12591;SDS011;6361;52.120;5.108;2023-10-13T13:41:42;24.27;;;8.27;;
12591;SDS011;6361;52.120;5.108;2023-10-13T13:44:09;21.73;;;9.00;;
12591;SDS011;6361;52.120;5.108;2023-10-13T13:46:41;27.23;;;8.10;;
12591;SDS011;6361;52.120;5.108;2023-10-13T13:49:07;25.42;;;8.20;;
12591;SDS011;6361;52.120;5.108;2023-10-13T13:51:39;25.67;;;7.95;;
12591;SDS011;6361;52.120;5.108;2023-10-13T13:54:04;24.10;;;8.20;;
12591;SDS011;6361;52.120;5.108;2023-10-13T13:56:32;25.48;;;7.70;;
12591;SDS011;6361;52.120;5.108;2023-10-13T13:59:03;21.73;;;8.15;;
12591;SDS011;6361;52.120;5.108;2023-10-13T14:01:32;24.88;;;8.05;;
12591;SDS011;6361;52.120;5.108;2023-10-13T14:04:00;24.23;;;8.40;;
12591;SDS011;6361;52.120;5.108;2023-10-13T14:06:27;26.33;;;8.60;;
12591;SDS011;6361;52.120;5.108;2023-10-13T14:08:56;20.73;;;8.20;;
12591;SDS011;6361;52.120;5.108;2023-10-13T14:11:25;23.13;;;8.38;;
12591;SDS011;6361;52.120;5.108;2023-10-13T14:14:07;22.90;;;9.38;;
12591;SDS011;6361;52.120;5.108;2023-10-13T14:16:54;19.67;;;9.13;;
12591;SDS011;6361;52.120;5.108;2023-10-13T14:19:27;24.10;;;8.60;;
12591;SDS011;6361;52.120;5.108;2023-10-13T14:21:56;22.38;;;8.93;;
12591;SDS011;6361;52.120;5.108;2023-10-13T14:24:22;21.92;;;8.52;;
12591;SDS011;6361;52.120;5.108;2023-10-13T14:26:58;19.30;;;7.53;;
12591;SDS011;6361;52.120;5.108;2023-10-13T14:29:42;21.05;;;6.97;;
12591;SDS011;6361;52.120;5.108;2023-10-13T14:32:11;13.82;;;5.70;;
12591;SDS011;6361;52.120;5.108;2023-10-13T14:34:41;19.17;;;6.82;;
12591;SDS011;6361;52.120;5.108;2023-10-13T14:37:09;14.18;;;5.97;;
12591;SDS011;6361;52.120;5.108;2023-10-13T14:39:38;14.88;;;5.60;;
12591;SDS011;6361;52.120;5.108;2023-10-13T14:42:04;14.70;;;5.75;;
12591;SDS011;6361;52.120;5.108;2023-10-13T14:44:35;13.60;;;5.47;;
12591;SDS011;6361;52.120;5.108;2023-10-13T14:47:01;13.27;;;4.97;;
12591;SDS011;6361;52.120;5.108;2023-10-13T14:49:27;13.02;;;4.50;;
12591;SDS011;6361;52.120;5.108;2023-10-13T14:51:53;16.00;;;4.93;;
12591;SDS011;6361;52.120;5.108;2023-10-13T14:54:20;10.88;;;4.45;;
12591;SDS011;6361;52.120;5.108;2023-10-13T14:56:58;16.70;;;5.22;;
12591;SDS011;6361;52.120;5.108;2023-10-13T14:59:24;11.38;;;4.95;;
12591;SDS011;6361;52.120;5.108;2023-10-13T15:01:49;15.63;;;5.03;;
12591;SDS011;6361;52.120;5.108;2023-10-13T15:04:14;19.02;;;5.55;;
12591;SDS011;6361;52.120;5.108;2023-10-13T15:06:40;14.38;;;5.32;;
12591;SDS011;6361;52.120;5.108;2023-10-13T15:09:05;15.50;;;4.97;;
12591;SDS011;6361;52.120;5.108;2023-10-13T15:11:35;14.40;;;5.40;;
12591;SDS011;6361;52.120;5.108;2023-10-13T15:14:01;17.60;;;5.20;;
12591;SDS011;6361;52.120;5.108;2023-10-13T15:16:33;12.15;;;5.20;;
12591;SDS011;6361;52.120;5.108;2023-10-13T15:19:01;18.35;;;5.60;;
12591;SDS011;6361;52.120;5.108;2023-10-13T15:21:29;23.48;;;6.40;;
12591;SDS011;6361;52.120;5.108;2023-10-13T15:24:01;18.83;;;6.32;;
12591;SDS011;6361;52.120;5.108;2023-10-13T15:26:39;19.83;;;6.00;;
12591;SDS011;6361;52.120;5.108;2023-10-13T15:29:10;18.05;;;6.80;;
12591;SDS011;6361;52.120;5.108;2023-10-13T15:31:37;23.35;;;8.02;;
12591;SDS011;6361;52.120;5.108;2023-10-13T15:34:05;21.13;;;7.47;;
12591;SDS011;6361;52.120;5.108;2023-10-13T15:36:42;25.52;;;7.88;;
12591;SDS011;6361;52.120;5.108;2023-10-13T15:39:11;22.80;;;8.20;;
12591;SDS011;6361;52.120;5.108;2023-10-13T15:41:40;24.65;;;9.20;;
12591;SDS011;6361;52.120;5.108;2023-10-13T15:44:12;23.63;;;8.98;;